Time;durP1;ratioP1;P1;durP2;ratioP2;P2;SDS_P1;SDS_P2;PMS_P1;PMS_P2;Temp;Humidity;BMP_temperature;BMP_pressure;BME280_temperature;BME280_humidity;BME280_pressure;Samples;Min_cycle;Max_cycle;Signal;HPM_P1;HPM_P2
2023/07/02 00:01:36;;;;;;;6.57;5.65;;;16.50;99.90;;;;;;6320338;22;20002;-73
2023/07/02 00:04:03;;;;;;;14.20;7.10;;;16.50;99.90;;;;;;6348166;22;20007;-72
2023/07/02 00:06:29;;;;;;;8.60;5.85;;;16.40;99.90;;;;;;6321205;22;19999;-73
2023/07/02 00:08:54;;;;;;;8.07;5.57;;;16.30;99.90;;;;;;6320223;22;20002;-72
2023/07/02 00:11:20;;;;;;;13.07;6.03;;;16.30;99.90;;;;;;6310143;22;20026;-72
2023/07/02 00:13:46;;;;;;;8.10;6.68;;;16.30;99.90;;;;;;6319942;22;20445;-74
2023/07/02 00:16:12;;;;;;;9.60;6.68;;;16.30;99.90;;;;;;6310473;22;19995;-71
2023/07/02 00:18:38;;;;;;;10.57;8.00;;;16.20;99.90;;;;;;6284525;22;20422;-72
2023/07/02 00:21:05;;;;;;;15.05;9.02;;;16.20;99.90;;;;;;6284727;22;20460;-72
2023/07/02 00:23:32;;;;;;;11.45;7.90;;;16.30;99.90;;;;;;6284186;22;20369;-72
2023/07/02 00:25:58;;;;;;;20.58;8.30;;;16.20;99.90;;;;;;6258813;22;20097;-72
2023/07/02 00:28:24;;;;;;;15.13;7.90;;;16.20;99.90;;;;;;6319957;22;20026;-72
2023/07/02 00:30:50;;;;;;;11.05;7.53;;;16.20;99.90;;;;;;6284917;22;20060;-72
2023/07/02 00:33:16;;;;;;;10.77;7.43;;;16.20;99.90;;;;;;6309093;22;20002;-71
2023/07/02 00:35:42;;;;;;;24.95;8.57;;;16.20;99.90;;;;;;6284179;22;20081;-73
2023/07/02 00:38:07;;;;;;;10.55;7.50;;;16.20;99.90;;;;;;6284529;22;20049;-72
2023/07/02 00:40:37;;;;;;;9.35;7.65;;;16.20;99.90;;;;;;6285020;22;20077;-71
2023/07/02 00:43:03;;;;;;;11.55;8.13;;;16.20;99.90;;;;;;6309964;22;20300;-71
2023/07/02 00:45:29;;;;;;;30.33;8.55;;;16.20;99.90;;;;;;6284021;22;20018;-75
2023/07/02 00:47:55;;;;;;;22.05;11.25;;;16.20;99.90;;;;;;6258929;22;20006;-73
2023/07/02 00:50:22;;;;;;;16.45;9.75;;;16.10;99.90;;;;;;6283661;22;20326;-71
2023/07/02 00:52:49;;;;;;;14.15;9.98;;;16.10;99.90;;;;;;6283925;22;20094;-72
2023/07/02 00:55:15;;;;;;;11.73;9.15;;;16.20;99.90;;;;;;6310037;22;20300;-71
2023/07/02 00:57:46;;;;;;;14.18;9.40;;;16.10;99.90;;;;;;6283958;22;19995;-72
2023/07/02 01:00:13;;;;;;;15.70;10.10;;;16.20;99.90;;;;;;6309967;22;20007;-72
2023/07/02 01:02:43;;;;;;;15.65;9.10;;;16.20;99.90;;;;;;6283099;22;20689;-73
2023/07/02 01:05:14;;;;;;;12.93;9.02;;;16.20;99.90;;;;;;6309469;22;20315;-73
2023/07/02 01:07:42;;;;;;;16.25;9.32;;;16.20;99.90;;;;;;6335911;22;20010;-72
2023/07/02 01:10:08;;;;;;;21.95;9.40;;;16.20;99.90;;;;;;6320069;22;20406;-72
2023/07/02 01:12:36;;;;;;;20.55;13.23;;;16.20;99.90;;;;;;6319753;22;20352;-72
2023/07/02 01:15:04;;;;;;;15.23;10.13;;;16.20;99.90;;;;;;6283983;22;20014;-72
2023/07/02 01:17:41;;;;;;;17.40;10.82;;;16.10;99.90;;;;;;6283888;22;20437;-72
2023/07/02 01:20:11;;;;;;;15.70;12.57;;;16.10;99.90;;;;;;6283990;22;20330;-72
2023/07/02 01:22:38;;;;;;;;;;;16.10;99.90;;;;;;6320078;22;20025;-71
2023/07/02 01:25:05;;;;;;;19.48;11.65;;;16.10;99.90;;;;;;6283977;22;19907;-72
2023/07/02 01:27:32;;;;;;;18.48;11.43;;;16.00;99.90;;;;;;6319900;22;20084;-72
2023/07/02 01:29:57;;;;;;;19.33;11.32;;;16.00;99.90;;;;;;6347776;22;19991;-74
2023/07/02 01:32:23;;;;;;;15.30;10.73;;;16.10;99.90;;;;;;6308690;22;20040;-74
2023/07/02 01:34:53;;;;;;;20.48;12.15;;;16.10;99.90;;;;;;6283749;22;20006;-71
2023/07/02 01:37:19;;;;;;;15.43;12.02;;;16.10;99.90;;;;;;6309206;22;20217;-71
2023/07/02 01:39:45;;;;;;;19.60;10.55;;;16.10;99.90;;;;;;6320179;22;20070;-72
2023/07/02 01:42:15;;;;;;;23.58;13.02;;;16.10;99.90;;;;;;6283992;22;20043;-73
2023/07/02 01:44:43;;;;;;;18.52;11.60;;;16.10;99.90;;;;;;6319525;22;20094;-71
2023/07/02 01:47:09;;;;;;;21.52;12.38;;;16.10;99.90;;;;;;6319468;22;19991;-71
2023/07/02 01:49:36;;;;;;;17.13;10.55;;;16.10;99.90;;;;;;6284114;22;20003;-72
2023/07/02 01:52:03;;;;;;;14.60;11.93;;;16.10;99.90;;;;;;6309621;22;19999;-72
2023/07/02 01:54:31;;;;;;;24.05;13.95;;;16.20;99.90;;;;;;6308690;22;20087;-72
2023/07/02 01:56:57;;;;;;;18.90;11.27;;;16.10;99.90;;;;;;6283623;22;20048;-72
2023/07/02 01:59:24;;;;;;;18.75;10.65;;;16.20;99.90;;;;;;6347522;22;20068;-72
2023/07/02 02:01:49;;;;;;;18.83;13.88;;;16.20;99.90;;;;;;6308775;22;19999;-74
2023/07/02 02:04:17;;;;;;;21.02;13.35;;;16.20;99.90;;;;;;6345417;22;20015;-71
2023/07/02 02:06:43;;;;;;;30.95;13.88;;;16.30;99.90;;;;;;6283784;22;20353;-73
2023/07/02 02:09:09;;;;;;;24.90;13.68;;;16.20;99.90;;;;;;6283875;22;20064;-74
2023/07/02 02:11:41;;;;;;;18.35;12.20;;;16.20;99.90;;;;;;6284130;22;19995;-72
2023/07/02 02:14:07;;;;;;;21.48;14.25;;;16.20;99.90;;;;;;6309008;22;20150;-72
2023/07/02 02:16:36;;;;;;;22.17;13.00;;;16.20;99.90;;;;;;6347755;22;20026;-74
2023/07/02 02:19:03;;;;;;;19.13;13.07;;;16.20;99.90;;;;;;6283494;22;20090;-72
2023/07/02 02:21:29;;;;;;;31.70;15.05;;;16.20;99.90;;;;;;6283818;22;20068;-71
2023/07/02 02:23:55;;;;;;;29.13;15.07;;;16.20;99.90;;;;;;6318847;22;19995;-72
2023/07/02 02:26:22;;;;;;;21.17;11.63;;;16.10;99.90;;;;;;6347845;22;20049;-72
2023/07/02 02:28:48;;;;;;;30.23;14.52;;;16.10;99.90;;;;;;6347637;22;20022;-72
2023/07/02 02:31:15;;;;;;;25.42;15.68;;;16.10;99.90;;;;;;6346773;22;20049;-74
2023/07/02 02:33:41;;;;;;;17.90;12.40;;;16.00;99.90;;;;;;6282087;22;20414;-71
2023/07/02 02:36:07;;;;;;;29.30;14.93;;;16.00;99.90;;;;;;6308880;22;19999;-72
2023/07/02 02:38:34;;;;;;;30.23;14.57;;;15.90;99.90;;;;;;6309449;22;20072;-71
2023/07/02 02:41:02;;;;;;;19.63;13.55;;;15.80;99.90;;;;;;6283792;22;19995;-70
2023/07/02 02:43:32;;;;;;;18.45;13.50;;;15.80;99.90;;;;;;6283398;22;20007;-71
2023/07/02 02:45:58;;;;;;;16.50;14.43;;;15.80;99.90;;;;;;6283811;22;20045;-71
2023/07/02 02:48:26;;;;;;;30.80;14.23;;;15.80;99.90;;;;;;6309667;22;20090;-71
2023/07/02 02:50:52;;;;;;;18.75;12.65;;;15.80;99.90;;;;;;6284255;22;20029;-72
2023/07/02 02:53:18;;;;;;;22.27;13.73;;;15.80;99.90;;;;;;6284565;22;20003;-71
2023/07/02 02:55:43;;;;;;;25.95;15.43;;;15.80;99.90;;;;;;6285137;22;20038;-71
2023/07/02 02:58:09;;;;;;;20.00;14.30;;;15.90;99.90;;;;;;6349010;22;20069;-72
2023/07/02 03:00:35;;;;;;;20.02;14.27;;;15.90;99.90;;;;;;6311294;22;20445;-71
2023/07/02 03:03:02;;;;;;;25.02;14.18;;;15.90;99.90;;;;;;6284398;22;20006;-71
2023/07/02 03:05:29;;;;;;;17.63;14.20;;;15.80;99.90;;;;;;6349583;22;20014;-71
2023/07/02 03:07:54;;;;;;;23.35;15.93;;;15.90;99.90;;;;;;6310766;22;20494;-72
2023/07/02 03:10:20;;;;;;;27.67;16.25;;;15.80;99.90;;;;;;6310669;22;20003;-74
2023/07/02 03:12:47;;;;;;;19.63;13.68;;;15.80;99.90;;;;;;6284555;22;20022;-74
2023/07/02 03:15:13;;;;;;;24.67;15.10;;;15.90;99.90;;;;;;6321615;22;20371;-72
2023/07/02 03:17:39;;;;;;;27.75;18.50;;;15.80;99.90;;;;;;6349120;22;19998;-73
2023/07/02 03:20:07;;;;;;;17.40;13.68;;;15.80;99.90;;;;;;6285309;22;19995;-71
2023/07/02 03:22:34;;;;;;;26.95;15.77;;;15.80;99.90;;;;;;6284476;22;19995;-71
2023/07/02 03:25:00;;;;;;;40.03;18.00;;;15.70;99.90;;;;;;6285311;22;20429;-71
2023/07/02 03:27:26;;;;;;;39.50;17.13;;;15.70;99.90;;;;;;6310448;22;20089;-71
2023/07/02 03:29:52;;;;;;;21.98;15.85;;;15.70;99.90;;;;;;6321534;22;20037;-72
2023/07/02 03:32:18;;;;;;;20.42;16.08;;;15.70;99.90;;;;;;6284555;22;20393;-71
2023/07/02 03:34:44;;;;;;;27.17;15.95;;;15.70;99.90;;;;;;6284809;22;20007;-72
2023/07/02 03:37:09;;;;;;;25.88;15.73;;;15.70;99.90;;;;;;6320927;22;20311;-72
2023/07/02 03:39:35;;;;;;;31.45;18.45;;;15.70;99.90;;;;;;6285106;22;19999;-72
2023/07/02 03:42:01;;;;;;;25.17;16.35;;;15.70;99.90;;;;;;6285203;22;20442;-71
2023/07/02 03:44:27;;;;;;;35.70;17.92;;;15.70;99.90;;;;;;6310159;22;20026;-72
2023/07/02 03:46:54;;;;;;;24.77;16.83;;;15.70;99.90;;;;;;6348842;22;20001;-75
2023/07/02 03:49:19;;;;;;;23.48;15.85;;;15.70;99.90;;;;;;6348559;22;20303;-72
2023/07/02 03:51:45;;;;;;;24.95;18.13;;;15.70;99.90;;;;;;6285066;22;20055;-72
2023/07/02 03:54:11;;;;;;;21.15;14.40;;;15.70;99.90;;;;;;6347752;22;20334;-72
2023/07/02 03:56:37;;;;;;;25.95;16.70;;;15.70;99.90;;;;;;6285010;22;20010;-71
2023/07/02 03:59:03;;;;;;;29.40;18.08;;;15.70;99.90;;;;;;6320529;22;19998;-71
2023/07/02 04:01:28;;;;;;;25.38;15.98;;;15.70;99.90;;;;;;6283904;22;20009;-72
2023/07/02 04:03:55;;;;;;;24.15;15.48;;;15.70;99.90;;;;;;6309799;22;20014;-71
2023/07/02 04:06:21;;;;;;;22.27;16.15;;;15.70;99.90;;;;;;6284720;22;20040;-72
2023/07/02 04:08:47;;;;;;;30.75;16.23;;;15.70;99.90;;;;;;6348627;22;20031;-72
2023/07/02 04:11:13;;;;;;;24.02;14.85;;;15.80;99.90;;;;;;6284766;22;20030;-73
2023/07/02 04:13:39;;;;;;;35.03;17.60;;;15.80;99.90;;;;;;6320568;22;19998;-72
2023/07/02 04:16:05;;;;;;;28.98;16.05;;;15.80;99.90;;;;;;6310428;22;19995;-72
2023/07/02 04:18:31;;;;;;;40.40;18.73;;;15.70;99.90;;;;;;6320939;22;20005;-73
2023/07/02 04:20:58;;;;;;;35.03;17.25;;;15.70;99.90;;;;;;6348831;22;19994;-72
2023/07/02 04:23:25;;;;;;;26.38;16.63;;;15.70;99.90;;;;;;6309966;22;20005;-72
2023/07/02 04:25:51;;;;;;;24.75;18.45;;;15.70;99.90;;;;;;6348449;22;20063;-71
2023/07/02 04:28:17;;;;;;;33.53;18.27;;;15.80;99.90;;;;;;6284936;22;20481;-71
2023/07/02 04:30:43;;;;;;;27.38;17.17;;;15.80;99.90;;;;;;6320672;22;19991;-72
2023/07/02 04:33:09;;;;;;;28.88;16.95;;;15.90;99.90;;;;;;6284084;22;20101;-71
2023/07/02 04:35:34;;;;;;;26.67;16.70;;;16.10;99.90;;;;;;6310282;22;20362;-71
2023/07/02 04:38:01;;;;;;;34.22;18.95;;;16.20;99.90;;;;;;6320363;22;20092;-72
2023/07/02 04:40:27;;;;;;;22.08;18.00;;;16.30;99.90;;;;;;6309508;22;19991;-77
2023/07/02 04:42:59;;;;;;;22.92;15.77;;;16.80;99.90;;;;;;6306802;22;20010;-73
2023/07/02 04:45:26;;;;;;;32.75;17.73;;;17.30;99.90;;;;;;6309785;22;20018;-72
2023/07/02 04:47:52;;;;;;;24.58;13.98;;;17.60;99.90;;;;;;6319410;22;19991;-73
2023/07/02 04:50:19;;;;;;;17.15;15.02;;;17.80;99.90;;;;;;6309503;22;20002;-73
2023/07/02 04:52:45;;;;;;;21.83;15.93;;;17.90;99.90;;;;;;6282885;22;20077;-73
2023/07/02 04:55:11;;;;;;;26.42;15.15;;;17.80;99.90;;;;;;6319643;22;20022;-73
2023/07/02 04:57:37;;;;;;;20.65;13.75;;;18.40;99.90;;;;;;6309891;22;20003;-74
2023/07/02 05:00:06;;;;;;;22.70;15.73;;;19.30;99.90;;;;;;6347810;22;20021;-71
2023/07/02 05:02:32;;;;;;;30.33;17.13;;;19.30;99.90;;;;;;6342253;22;20077;-73
2023/07/02 05:04:58;;;;;;;20.38;16.83;;;20.40;99.90;;;;;;6344661;22;20021;-74
2023/07/02 05:07:25;;;;;;;24.90;15.88;;;20.20;99.90;;;;;;6281776;22;20002;-73
2023/07/02 05:09:52;;;;;;;21.05;13.85;;;20.40;99.90;;;;;;6280940;22;20498;-74
2023/07/02 05:12:19;;;;;;;27.50;15.90;;;20.30;99.90;;;;;;6306830;22;19999;-74
2023/07/02 05:14:46;;;;;;;20.98;14.88;;;20.40;99.90;;;;;;6317343;22;20373;-72
2023/07/02 05:17:14;;;;;;;28.02;16.40;;;20.20;99.90;;;;;;6307562;22;20426;-73
2023/07/02 05:19:41;;;;;;;15.55;13.73;;;20.30;99.90;;;;;;6307247;22;20007;-73
2023/07/02 05:22:07;;;;;;;24.98;14.93;;;20.40;99.90;;;;;;6281821;22;20041;-73
2023/07/02 05:24:32;;;;;;;29.13;14.85;;;20.50;99.90;;;;;;6280560;22;20007;-72
2023/07/02 05:26:58;;;;;;;30.00;17.27;;;19.90;99.90;;;;;;6281179;22;19998;-73
2023/07/02 05:29:24;;;;;;;31.17;17.08;;;19.70;99.90;;;;;;6317899;22;20002;-74
2023/07/02 05:31:50;;;;;;;24.45;15.63;;;19.50;99.90;;;;;;6307041;22;20410;-73
2023/07/02 05:34:16;;;;;;;19.52;15.35;;;19.40;99.90;;;;;;6316049;22;20011;-73
2023/07/02 05:36:42;;;;;;;21.85;15.52;;;19.90;99.90;;;;;;6307251;22;20034;-73
2023/07/02 05:39:08;;;;;;;19.67;16.40;;;19.90;99.90;;;;;;6305052;22;20011;-70
2023/07/02 05:41:34;;;;;;;29.33;16.45;;;20.20;99.90;;;;;;6318669;22;19995;-74
2023/07/02 05:44:00;;;;;;;21.75;14.18;;;20.40;99.90;;;;;;6282657;22;20003;-72
2023/07/02 05:46:26;;;;;;;21.27;14.80;;;20.20;99.90;;;;;;6309426;22;19991;-70
2023/07/02 05:48:52;;;;;;;22.88;15.77;;;20.00;99.90;;;;;;6319664;22;20003;-70
2023/07/02 05:51:21;;;;;;;24.05;15.45;;;19.90;99.90;;;;;;6320329;22;20056;-71
2023/07/02 05:53:47;;;;;;;24.83;15.48;;;20.00;99.90;;;;;;6346673;22;20029;-70
2023/07/02 05:56:13;;;;;;;24.65;14.82;;;20.10;99.90;;;;;;6346706;22;19998;-71
2023/07/02 05:58:39;;;;;;;25.88;14.90;;;20.70;99.90;;;;;;6346804;22;20003;-72
2023/07/02 06:01:05;;;;;;;17.25;13.48;;;21.30;99.90;;;;;;6281002;22;19999;-72
2023/07/02 06:03:32;;;;;;;31.58;14.75;;;21.60;99.90;;;;;;6305550;22;20003;-73
2023/07/02 06:05:58;;;;;;;21.92;13.85;;;23.10;99.90;;;;;;6281443;22;20014;-71
2023/07/02 06:08:24;;;;;;;26.67;13.63;;;23.30;99.90;;;;;;6344356;22;20003;-70
2023/07/02 06:10:50;;;;;;;21.95;14.15;;;24.10;99.90;;;;;;6345852;22;20005;-71
2023/07/02 06:13:16;;;;;;;19.02;11.70;;;23.40;99.90;;;;;;6308589;22;19995;-71
2023/07/02 06:15:43;;;;;;;21.73;12.90;;;23.30;99.90;;;;;;6283292;22;20390;-73
2023/07/02 06:18:08;;;;;;;18.40;12.05;;;22.90;99.90;;;;;;6347410;22;19994;-70
2023/07/02 06:20:34;;;;;;;19.20;11.52;;;23.40;99.90;;;;;;6283478;22;20318;-71
2023/07/02 06:23:01;;;;;;;20.17;11.68;;;22.80;99.90;;;;;;6320072;22;20004;-71
2023/07/02 06:25:26;;;;;;;28.08;12.70;;;22.90;99.90;;;;;;6309546;22;20014;-73
2023/07/02 06:27:54;;;;;;;23.08;12.07;;;22.60;99.90;;;;;;6321885;22;19999;-73
2023/07/02 06:30:21;;;;;;;23.40;12.57;;;23.60;99.90;;;;;;6349334;22;19991;-71
2023/07/02 06:32:47;;;;;;;21.95;12.75;;;25.30;99.00;;;;;;6315133;22;20010;-71
2023/07/02 06:35:13;;;;;;;18.92;11.48;;;26.90;97.10;;;;;;6285267;22;20370;-71
2023/07/02 06:37:39;;;;;;;14.65;9.43;;;27.90;94.90;;;;;;6321153;22;20026;-74
2023/07/02 06:40:06;;;;;;;15.55;9.52;;;27.80;93.00;;;;;;6285385;22;19999;-72
2023/07/02 06:42:32;;;;;;;15.55;9.85;;;27.30;93.50;;;;;;6310719;22;19999;-82
2023/07/02 06:44:59;;;;;;;18.38;10.40;;;27.70;90.50;;;;;;6321750;22;20007;-73
2023/07/02 06:47:25;;;;;;;14.80;9.48;;;28.20;90.70;;;;;;6311431;22;19999;-73
2023/07/02 06:49:52;;;;;;;13.90;10.52;;;28.40;90.20;;;;;;6321521;22;20318;-73
2023/07/02 06:52:18;;;;;;;17.90;9.45;;;28.50;88.70;;;;;;6321451;22;19998;-75
2023/07/02 06:54:44;;;;;;;13.57;9.18;;;29.60;85.60;;;;;;6284368;22;20022;-70
2023/07/02 06:57:10;;;;;;;16.70;10.10;;;32.00;83.10;;;;;;6285409;22;20006;-70
2023/07/02 06:59:36;;;;;;;16.95;10.35;;;32.90;78.60;;;;;;6349562;22;20330;-70
2023/07/02 07:02:02;;;;;;;13.77;10.45;;;34.20;75.80;;;;;;6285098;22;20048;-71
2023/07/02 07:04:29;;;;;;;13.90;10.30;;;33.10;71.60;;;;;;6310732;22;20331;-75
2023/07/02 07:06:57;;;;;;;18.17;10.15;;;32.70;72.00;;;;;;6320936;22;20433;-75
2023/07/02 07:09:23;;;;;;;15.40;8.27;;;30.50;74.40;;;;;;6310839;22;20037;-73
2023/07/02 07:11:49;;;;;;;18.15;10.23;;;30.10;75.30;;;;;;6295977;22;20002;-79
2023/07/02 07:14:16;;;;;;;14.25;9.27;;;31.60;74.00;;;;;;6281747;22;20136;-79
2023/07/02 07:16:42;;;;;;;14.93;9.40;;;31.00;72.60;;;;;;6307626;22;20433;-72
2023/07/02 07:19:08;;;;;;;14.05;7.18;;;29.80;72.00;;;;;;6281584;22;19998;-74
2023/07/02 07:21:34;;;;;;;14.13;8.38;;;28.60;75.80;;;;;;6282691;22;20044;-72
2023/07/02 07:24:00;;;;;;;16.00;9.52;;;28.10;75.30;;;;;;6345834;22;19994;-72
2023/07/02 07:26:26;;;;;;;9.13;6.75;;;27.70;74.20;;;;;;6283072;22;20002;-75
2023/07/02 07:28:54;;;;;;;9.82;7.22;;;27.50;76.10;;;;;;6346538;22;19991;-73
2023/07/02 07:31:20;;;;;;;14.15;7.97;;;27.80;75.50;;;;;;6347219;22;20075;-72
2023/07/02 07:33:46;;;;;;;11.15;7.22;;;29.50;72.40;;;;;;6283370;22;20006;-72
2023/07/02 07:36:11;;;;;;;9.93;7.05;;;30.10;73.10;;;;;;6348053;22;20077;-73
2023/07/02 07:38:37;;;;;;;15.00;8.18;;;30.60;71.20;;;;;;6284853;22;20006;-74
2023/07/02 07:41:03;;;;;;;14.40;8.02;;;32.00;70.80;;;;;;6284776;22;20007;-72
2023/07/02 07:43:29;;;;;;;10.13;6.85;;;32.70;69.50;;;;;;6258989;22;20098;-73
2023/07/02 07:45:55;;;;;;;18.30;8.95;;;34.30;68.00;;;;;;6284720;22;20105;-72
2023/07/02 07:48:21;;;;;;;13.75;6.95;;;34.80;66.50;;;;;;6348696;22;20514;-71
2023/07/02 07:50:47;;;;;;;11.57;7.03;;;35.90;66.40;;;;;;6284758;22;20094;-73
2023/07/02 07:53:13;;;;;;;9.88;7.45;;;34.00;65.70;;;;;;6284433;22;20034;-72
2023/07/02 07:55:39;;;;;;;14.18;6.78;;;30.50;67.00;;;;;;6348564;22;20006;-71
2023/07/02 07:58:04;;;;;;;14.40;7.60;;;28.30;71.60;;;;;;6320789;22;20009;-72
2023/07/02 08:00:30;;;;;;;15.93;8.45;;;26.20;73.00;;;;;;6284399;22;20015;-72
2023/07/02 08:02:56;;;;;;;14.75;8.50;;;24.10;77.10;;;;;;6283439;22;20006;-72
2023/07/02 08:05:23;;;;;;;12.05;7.78;;;23.00;80.80;;;;;;6347611;22;20046;-76
2023/07/02 08:07:49;;;;;;;11.90;7.13;;;22.00;83.60;;;;;;6320848;22;20414;-73
2023/07/02 08:10:15;;;;;;;10.95;7.28;;;21.40;86.30;;;;;;6348771;22;19999;-73
2023/07/02 08:12:40;;;;;;;13.43;7.68;;;20.80;89.60;;;;;;6347940;22;20051;-72
2023/07/02 08:15:07;;;;;;;13.32;7.65;;;20.60;91.10;;;;;;6348164;22;20325;-73
2023/07/02 08:17:32;;;;;;;9.60;6.30;;;20.00;91.50;;;;;;6321077;22;20002;-71
2023/07/02 08:19:58;;;;;;;11.13;7.22;;;20.00;91.80;;;;;;6320399;22;20003;-73
2023/07/02 08:22:24;;;;;;;12.02;7.00;;;19.90;92.00;;;;;;6284065;22;20040;-72
2023/07/02 08:24:50;;;;;;;10.98;6.80;;;19.60;92.40;;;;;;6320277;22;20457;-72
2023/07/02 08:27:19;;;;;;;12.27;5.95;;;19.40;93.50;;;;;;6283130;22;19998;-72
2023/07/02 08:29:46;;;;;;;10.63;6.63;;;19.30;93.60;;;;;;6314688;22;20361;-73
2023/07/02 08:32:12;;;;;;;17.63;7.20;;;19.70;95.90;;;;;;6286298;22;20006;-72
2023/07/02 08:34:38;;;;;;;23.67;8.48;;;19.80;94.20;;;;;;6319708;22;20070;-72
2023/07/02 08:37:05;;;;;;;10.93;6.00;;;20.50;93.90;;;;;;6347439;22;19995;-73
2023/07/02 08:39:30;;;;;;;12.73;7.53;;;20.80;93.40;;;;;;6284473;22;20003;-72
2023/07/02 08:41:56;;;;;;;15.20;6.78;;;20.80;92.50;;;;;;6347799;22;19995;-71
2023/07/02 08:44:22;;;;;;;7.55;5.90;;;21.00;92.60;;;;;;6347247;22;20014;-72
2023/07/02 08:46:50;;;;;;;15.65;6.95;;;20.90;92.50;;;;;;6284644;22;20077;-73
2023/07/02 08:49:17;;;;;;;17.67;7.53;;;21.00;92.70;;;;;;6320475;22;20005;-72
2023/07/02 08:51:45;;;;;;;20.60;8.30;;;21.20;92.70;;;;;;6347734;22;19991;-72
2023/07/02 08:54:11;;;;;;;9.18;5.90;;;22.30;91.60;;;;;;6284213;22;20010;-72
2023/07/02 08:56:38;;;;;;;12.18;8.00;;;23.00;91.70;;;;;;6348393;22;20365;-72
2023/07/02 08:59:09;;;;;;;11.82;6.05;;;24.30;88.10;;;;;;6347880;22;20414;-71
2023/07/02 09:01:49;;;;;;;9.32;7.03;;;27.10;82.70;;;;;;6284108;22;20094;-72
2023/07/02 09:04:25;;;;;;;14.30;7.35;;;30.10;78.00;;;;;;6283675;22;20035;-72
2023/07/02 09:07:02;;;;;;;7.90;6.35;;;30.10;72.70;;;;;;6348093;22;20068;-74
2023/07/02 09:09:28;;;;;;;12.13;5.80;;;28.80;73.80;;;;;;6320666;22;20414;-72
2023/07/02 09:11:54;;;;;;;8.13;6.38;;;28.90;72.40;;;;;;6347789;22;20405;-72
2023/07/02 09:14:30;;;;;;;8.98;6.95;;;27.90;73.30;;;;;;6258528;22;20003;-73
2023/07/02 09:17:08;;;;;;;10.80;5.38;;;27.60;71.90;;;;;;6347966;22;19998;-72
2023/07/02 09:19:35;;;;;;;8.75;5.57;;;27.20;72.20;;;;;;6310089;22;20444;-72
2023/07/02 09:22:02;;;;;;;8.15;5.18;;;27.60;71.20;;;;;;6347555;22;20074;-72
2023/07/02 09:24:30;;;;;;;11.00;7.03;;;28.80;72.00;;;;;;6347140;22;20056;-75
2023/07/02 09:26:58;;;;;;;6.85;5.85;;;30.30;67.50;;;;;;6283912;22;20314;-73
2023/07/02 09:29:30;;;;;;;13.05;5.68;;;30.20;68.10;;;;;;6347708;22;20014;-74
2023/07/02 09:32:00;;;;;;;11.55;5.45;;;30.20;68.10;;;;;;6345611;22;20064;-72
2023/07/02 09:34:28;;;;;;;11.57;5.43;;;31.30;64.80;;;;;;6309464;22;20006;-72
2023/07/02 09:36:54;;;;;;;8.80;6.43;;;31.00;65.00;;;;;;6284426;22;20089;-71
2023/07/02 09:39:25;;;;;;;8.02;5.85;;;29.90;64.80;;;;;;6320196;22;20395;-72
2023/07/02 09:41:51;;;;;;;7.22;5.35;;;29.90;68.00;;;;;;6319811;22;20002;-73
2023/07/02 09:44:18;;;;;;;9.35;5.60;;;29.00;64.50;;;;;;6319534;22;20027;-72
2023/07/02 09:47:05;;;;;;;12.68;6.80;;;30.40;65.60;;;;;;6347322;22;20090;-72
2023/07/02 09:49:55;;;;;;;10.02;5.82;;;29.80;66.30;;;;;;6347613;22;20291;-72
2023/07/02 09:52:21;;;;;;;10.05;5.88;;;28.90;65.40;;;;;;6308281;22;20011;-72
2023/07/02 09:54:47;;;;;;;9.10;6.00;;;28.30;67.30;;;;;;6347441;22;20035;-74
2023/07/02 09:57:14;;;;;;;12.70;6.63;;;27.40;69.10;;;;;;6347929;22;20064;-72
2023/07/02 09:59:40;;;;;;;14.65;6.63;;;26.50;68.50;;;;;;6336775;22;20422;-75
2023/07/02 10:02:12;;;;;;;28.02;6.47;;;26.20;71.80;;;;;;6285640;22;20312;-71
2023/07/02 10:04:45;;;;;;;9.65;6.72;;;25.70;71.50;;;;;;6349036;22;20038;-76
2023/07/02 10:07:12;;;;;;;10.70;6.95;;;26.10;72.40;;;;;;6350191;22;20013;-72
2023/07/02 10:09:43;;;;;;;8.10;5.82;;;26.00;71.00;;;;;;6322178;22;20001;-72
2023/07/02 10:12:20;;;;;;;10.00;6.75;;;26.20;71.10;;;;;;6285729;22;20010;-71
2023/07/02 10:14:49;;;;;;;9.75;6.18;;;26.40;70.10;;;;;;6321478;22;20037;-72
2023/07/02 10:17:24;;;;;;;11.07;5.43;;;26.40;70.30;;;;;;6349307;22;20025;-71
2023/07/02 10:19:54;;;;;;;10.00;5.50;;;27.40;69.70;;;;;;6349674;22;20082;-72
2023/07/02 10:22:20;;;;;;;9.10;5.80;;;27.20;69.90;;;;;;6322449;22;19999;-77
2023/07/02 10:25:05;;;;;;;11.30;5.90;;;26.90;69.40;;;;;;6285251;22;20375;-72
2023/07/02 10:27:39;;;;;;;8.05;5.20;;;26.50;69.70;;;;;;6349861;22;20029;-74
2023/07/02 10:30:06;;;;;;;10.55;6.30;;;29.20;73.30;;;;;;6319108;22;20074;-73
2023/07/02 10:32:36;;;;;;;12.70;6.45;;;29.10;69.10;;;;;;6259258;22;20322;-72
2023/07/02 10:35:22;;;;;;;9.20;6.18;;;29.20;68.70;;;;;;6310531;22;20027;-74
2023/07/02 10:37:48;;;;;;;11.00;6.65;;;29.40;68.90;;;;;;6349396;22;20021;-71
2023/07/02 10:40:14;;;;;;;12.50;6.38;;;29.60;67.30;;;;;;6321626;22;19991;-72
2023/07/02 10:42:48;;;;;;;9.30;6.22;;;29.40;69.30;;;;;;6310187;22;20006;-77
2023/07/02 10:45:14;;;;;;;13.60;6.85;;;28.70;67.90;;;;;;6310659;22;20041;-72
2023/07/02 10:47:41;;;;;;;9.57;6.28;;;28.10;69.50;;;;;;6349360;22;19995;-73
2023/07/02 10:50:23;;;;;;;10.38;6.80;;;26.70;72.10;;;;;;6337189;22;20434;-72
2023/07/02 10:52:52;;;;;;;13.98;7.13;;;25.50;71.50;;;;;;6284793;22;19999;-72
2023/07/02 10:55:22;;;;;;;10.30;6.67;;;24.80;73.10;;;;;;6349321;22;19998;-72
2023/07/02 10:57:50;;;;;;;;;;;24.30;73.50;;;;;;6311240;22;20248;-72
2023/07/02 11:00:17;;;;;;;9.57;5.40;;;24.30;74.30;;;;;;6311026;22;20321;-73
2023/07/02 11:02:43;;;;;;;16.05;7.90;;;25.30;73.30;;;;;;6309460;22;20116;-73
2023/07/02 11:05:12;;;;;;;12.93;6.53;;;25.30;73.80;;;;;;6285159;22;20334;-74
2023/07/02 11:07:40;;;;;;;11.60;6.07;;;26.30;73.80;;;;;;6348488;22;19999;-72
2023/07/02 11:10:08;;;;;;;13.80;6.95;;;27.20;72.50;;;;;;6348959;22;20066;-71
2023/07/02 11:12:34;;;;;;;11.65;6.07;;;27.30;73.00;;;;;;6348937;22;20295;-73
2023/07/02 11:15:15;;;;;;;11.13;6.93;;;27.60;70.30;;;;;;6309990;22;20024;-72
2023/07/02 11:17:42;;;;;;;11.65;7.07;;;27.70;70.90;;;;;;6320975;22;20453;-71
2023/07/02 11:20:09;;;;;;;13.77;7.68;;;27.50;70.80;;;;;;6294955;22;19995;-72
2023/07/02 11:22:37;;;;;;;11.32;6.38;;;26.60;72.00;;;;;;6321520;22;19995;-71
2023/07/02 11:25:10;;;;;;;9.48;7.45;;;26.10;73.60;;;;;;6347735;22;20124;-73
2023/07/02 11:27:36;;;;;;;11.70;6.63;;;25.10;74.20;;;;;;6310601;22;20322;-72
2023/07/02 11:30:02;;;;;;;12.60;6.35;;;24.10;77.10;;;;;;6348477;22;19991;-72
2023/07/02 11:32:28;;;;;;;10.00;6.30;;;24.20;77.00;;;;;;6284337;22;20011;-71
2023/07/02 11:34:55;;;;;;;12.75;8.15;;;25.20;75.80;;;;;;6293717;22;20002;-75
2023/07/02 11:37:20;;;;;;;12.30;7.53;;;25.90;75.60;;;;;;6284117;22;20009;-72
2023/07/02 11:39:46;;;;;;;11.98;6.03;;;25.90;75.00;;;;;;6284596;22;20327;-71
2023/07/02 11:42:12;;;;;;;15.13;6.57;;;25.70;73.70;;;;;;6348290;22;20136;-71
2023/07/02 11:44:38;;;;;;;13.32;6.53;;;25.50;75.60;;;;;;6346692;22;20007;-73
2023/07/02 11:47:04;;;;;;;26.40;7.85;;;25.60;75.60;;;;;;6320153;22;19999;-74
2023/07/02 11:49:30;;;;;;;16.55;7.82;;;25.40;75.60;;;;;;6320860;22;19995;-74
2023/07/02 11:51:56;;;;;;;18.42;7.32;;;25.20;75.70;;;;;;6284768;22;20151;-71
2023/07/02 11:54:22;;;;;;;10.40;6.03;;;24.90;76.60;;;;;;6293880;22;20007;-73
2023/07/02 11:56:48;;;;;;;13.43;7.13;;;24.90;77.50;;;;;;6284460;22;20426;-72
2023/07/02 11:59:14;;;;;;;13.30;5.95;;;24.70;78.70;;;;;;6256670;22;20003;-73
2023/07/02 12:01:39;;;;;;;11.88;6.68;;;24.60;79.00;;;;;;6318163;22;19999;-73
2023/07/02 12:04:07;;;;;;;15.65;7.75;;;24.80;78.30;;;;;;6309711;22;20014;-72
2023/07/02 12:06:33;;;;;;;16.55;8.27;;;25.20;77.70;;;;;;6284353;22;20080;-72
2023/07/02 12:08:59;;;;;;;10.98;7.45;;;25.70;78.40;;;;;;6310082;22;19999;-75
2023/07/02 12:11:25;;;;;;;13.90;7.18;;;26.00;77.30;;;;;;6320564;22;20005;-72
2023/07/02 12:13:51;;;;;;;12.75;8.30;;;26.50;75.70;;;;;;6257802;22;20090;-73
2023/07/02 12:16:17;;;;;;;11.00;7.35;;;26.40;75.80;;;;;;6282223;22;20347;-76
2023/07/02 12:18:42;;;;;;;10.50;7.07;;;25.70;75.80;;;;;;6335322;22;20001;-71
2023/07/02 12:21:09;;;;;;;14.18;8.45;;;26.10;77.40;;;;;;6319980;22;20006;-74
2023/07/02 12:23:35;;;;;;;14.15;7.72;;;26.20;74.90;;;;;;6281565;22;20385;-75
2023/07/02 12:26:01;;;;;;;14.07;8.23;;;26.00;76.70;;;;;;6347112;22;20323;-74
2023/07/02 12:28:27;;;;;;;14.05;9.18;;;25.60;76.50;;;;;;6258123;22;19999;-73
2023/07/02 12:30:53;;;;;;;12.95;7.13;;;24.90;75.70;;;;;;6306974;22;20002;-74
2023/07/02 12:33:19;;;;;;;11.73;6.95;;;24.60;77.50;;;;;;6281341;22;20003;-72